Time;durP1;ratioP1;P1;durP2;ratioP2;P2;SDS_P1;SDS_P2;PMS_P1;PMS_P2;Temp;Humidity;BMP_temperature;BMP_pressure;BME280_temperature;BME280_humidity;BME280_pressure;Samples;Min_cycle;Max_cycle;Signal;HPM_P1;HPM_P2
2022/02/02 00:00:33;;;;;;;6.80;3.63;;;;;;;-0.69;63.23;98242.28;5052037;28;20037;-53
2022/02/02 00:03:05;;;;;;;4.03;3.03;;;;;;;-0.74;63.57;98240.72;5051316;28;20037;-53
2022/02/02 00:08:14;;;;;;;6.10;3.50;;;;;;;-0.78;63.80;98238.41;5043695;28;20025;-59
2022/02/02 00:13:55;;;;;;;4.45;3.17;;;;;;;-0.67;62.96;98250.91;5051024;28;20039;-52
2022/02/02 00:19:04;;;;;;;3.60;2.75;;;;;;;-0.76;62.89;98239.16;5050909;28;20425;-53
2022/02/02 00:24:06;;;;;;;4.28;2.92;;;;;;;-0.78;63.64;98241.84;5051706;28;20120;-51
2022/02/02 00:26:37;;;;;;;7.38;3.55;;;;;;;-0.77;63.36;98240.09;5052060;28;20035;-55
2022/02/02 00:29:12;;;;;;;4.65;2.88;;;;;;;-0.84;63.58;98250.13;5050785;28;20377;-50
2022/02/02 00:31:43;;;;;;;4.85;3.40;;;;;;;-0.84;63.42;98239.59;5050804;28;20429;-58
2022/02/02 00:34:13;;;;;;;4.50;3.35;;;;;;;-0.84;63.34;98239.59;5038232;28;20100;-49
2022/02/02 00:36:56;;;;;;;5.60;3.50;;;;;;;-0.87;63.91;98251.13;5031390;28;20583;-50
2022/02/02 00:39:23;;;;;;;5.50;3.50;;;;;;;-0.92;64.06;98244.47;5030531;28;20033;-52
2022/02/02 00:41:49;;;;;;;5.18;3.70;;;;;;;-0.93;64.49;98241.00;5050608;28;20056;-51
2022/02/02 00:44:18;;;;;;;6.68;4.22;;;;;;;-0.94;64.39;98227.97;5051278;28;20476;-51
2022/02/02 00:46:44;;;;;;;7.03;3.90;;;;;;;-0.87;64.23;98240.63;5038076;28;20053;-57
2022/02/02 00:49:10;;;;;;;6.25;4.20;;;;;;;-0.85;64.47;98240.53;5050496;28;20040;-51
2022/02/02 00:51:44;;;;;;;5.75;3.67;;;;;;;-0.78;63.86;98239.22;5050506;28;20037;-52
2022/02/02 00:54:16;;;;;;;6.43;3.78;;;;;;;-0.71;63.94;98247.59;5050914;28;20028;-49
2022/02/02 00:56:42;;;;;;;6.38;4.15;;;;;;;-0.70;63.76;98246.66;5050747;28;20048;-54
2022/02/02 00:59:08;;;;;;;6.05;3.63;;;;;;;-0.71;63.92;98249.41;5045878;28;20426;-54
2022/02/02 01:01:34;;;;;;;6.78;3.97;;;;;;;-0.67;63.33;98251.72;5050362;28;20048;-53
2022/02/02 01:03:59;;;;;;;5.10;3.42;;;;;;;-0.93;63.00;98219.16;5050312;28;20033;-53
2022/02/02 01:06:28;;;;;;;7.07;3.65;;;;;;;-0.79;63.27;98248.06;5050971;28;20025;-50
2022/02/02 01:29:56;;;;;;;5.03;3.58;;;;;;;-0.83;62.41;98270.19;5028602;28;20112;-54
2022/02/02 01:32:21;;;;;;;6.72;4.15;;;;;;;-0.89;62.25;98274.03;5029931;28;20137;-55
2022/02/02 01:34:47;;;;;;;4.70;3.53;;;;;;;-0.92;62.29;98268.13;5029919;28;20042;-54
2022/02/02 01:37:15;;;;;;;7.00;3.95;;;;;;;-0.97;61.97;98264.91;5041928;28;20047;-53
2022/02/02 01:39:41;;;;;;;6.60;3.72;;;;;;;-0.92;62.50;98268.13;5030439;28;20061;-55
2022/02/02 01:42:11;;;;;;;5.80;4.07;;;;;;;-0.90;62.17;98277.59;5030311;28;20250;-50
2022/02/02 01:44:48;;;;;;;4.78;3.65;;;;;;;-0.90;61.96;98274.97;5029970;28;20045;-50
2022/02/02 01:47:14;;;;;;;6.45;4.00;;;;;;;-0.92;62.03;98281.25;5030424;28;20049;-49
2022/02/02 01:55:05;;;;;;;5.47;3.25;;;;;;;-1.10;61.75;98239.34;5030547;28;20045;-49
2022/02/02 02:00:04;;;;;;;7.20;3.78;;;;;;;-0.93;61.97;98266.44;5029736;28;20084;-53
2022/02/02 02:02:29;;;;;;;6.22;3.97;;;;;;;-0.94;61.95;98265.56;5045721;28;20072;-49
2022/02/02 02:04:55;;;;;;;5.93;3.75;;;;;;;-0.92;61.30;98268.13;5049850;28;20041;-49
2022/02/02 02:07:23;;;;;;;6.57;4.13;;;;;;;-0.93;61.39;98271.69;5049316;28;20036;-50
2022/02/02 02:09:49;;;;;;;5.90;3.80;;;;;;;-0.98;61.46;98277.19;5049828;28;20025;-53
2022/02/02 02:12:14;;;;;;;7.72;3.80;;;;;;;-1.04;61.65;98274.94;5050338;28;20431;-53
2022/02/02 02:14:54;;;;;;;6.32;4.15;;;;;;;-1.09;61.29;98256.81;5036797;28;20065;-52
2022/02/02 02:17:22;;;;;;;6.07;3.70;;;;;;;-1.10;61.22;98267.38;5033045;28;20064;-51
2022/02/02 02:19:50;;;;;;;7.22;4.22;;;;;;;-1.12;61.19;98267.50;5033969;28;20060;-50
2022/02/02 02:22:29;;;;;;;6.65;4.45;;;;;;;-1.12;61.26;98264.88;5034001;28;20030;-51
2022/02/02 02:24:55;;;;;;;6.78;4.18;;;;;;;-1.17;61.33;98266.91;5033327;28;20385;-52
2022/02/02 02:27:23;;;;;;;6.80;3.97;;;;;;;-1.18;61.12;98267.84;5034149;28;20026;-50
2022/02/02 02:30:04;;;;;;;5.57;3.70;;;;;;;-1.19;61.25;98274.88;5033834;28;20029;-56
2022/02/02 02:35:32;;;;;;;5.97;3.90;;;;;;;-1.22;61.29;98269.81;5032879;28;20568;-52
2022/02/02 02:57:10;;;;;;;6.72;4.15;;;;;;;-1.09;60.32;98301.47;5032536;28;20032;-50
2022/02/02 02:59:47;;;;;;;6.97;3.83;;;;;;;-1.18;60.21;98304.63;5033242;28;20041;-51
2022/02/02 03:30:15;;;;;;;6.97;4.03;;;;;;;-1.49;61.53;98335.22;5051892;28;20085;-50
2022/02/02 04:06:54;;;;;;;5.75;3.53;;;;;;;-1.75;61.74;98375.06;5051907;28;20041;-48
2022/02/02 04:09:20;;;;;;;5.03;3.33;;;;;;;-1.76;61.27;98385.63;5051519;28;20119;-55
2022/02/02 04:11:54;;;;;;;5.20;3.47;;;;;;;-1.93;61.35;98363.78;5049999;28;20117;-54
2022/02/02 04:54:59;;;;;;;5.80;3.53;;;;;;;-2.02;59.59;98401.84;5050837;28;20520;-48
2022/02/02 05:07:59;;;;;;;6.38;3.70;;;;;;;-2.03;59.57;98412.41;5029923;28;20025;-51
2022/02/02 05:10:58;;;;;;;6.47;3.60;;;;;;;-2.02;59.33;98419.34;5030053;28;20030;-52
2022/02/02 05:15:56;;;;;;;7.18;3.78;;;;;;;-2.11;58.96;98439.00;5031044;28;20017;-52
2022/02/02 05:53:21;;;;;;;8.30;4.57;;;;;;;-2.01;60.27;98463.00;5052724;28;20036;-56
2022/02/02 05:55:49;;;;;;;8.20;4.45;;;;;;;-2.03;60.29;98462.22;5051719;28;20036;-53
2022/02/02 05:58:15;;;;;;;6.88;4.05;;;;;;;-1.98;60.40;98465.47;5049881;28;20860;-57
2022/02/02 06:00:41;;;;;;;8.18;4.80;;;;;;;-1.98;60.81;98468.09;5050491;28;20028;-51
2022/02/02 06:03:13;;;;;;;6.65;4.45;;;;;;;-1.92;61.24;98472.19;5040962;28;20538;-54
2022/02/02 06:05:40;;;;;;;7.35;4.63;;;;;;;-1.86;60.58;98465.78;5030540;28;20069;-54
2022/02/02 06:08:11;;;;;;;8.80;4.78;;;;;;;-1.78;60.62;98469.72;5032105;28;20375;-54
2022/02/02 06:10:38;;;;;;;8.55;5.07;;;;;;;-1.82;60.86;98470.75;5032920;28;20121;-55
2022/02/02 06:13:03;;;;;;;8.23;4.70;;;;;;;-1.78;60.66;98469.72;5033056;28;20033;-53
2022/02/02 06:15:29;;;;;;;9.82;4.88;;;;;;;-1.77;60.37;98470.53;5033522;28;20028;-54
2022/02/02 06:17:55;;;;;;;10.32;4.53;;;;;;;-1.81;60.57;98484.75;5036673;28;20030;-55
2022/02/02 06:20:21;;;;;;;10.23;5.43;;;;;;;-1.84;60.84;98484.91;5054053;28;20111;-52
2022/02/02 06:23:11;;;;;;;7.80;4.80;;;;;;;-1.83;60.57;98478.72;5053668;28;20167;-52
2022/02/02 06:25:42;;;;;;;8.27;4.90;;;;;;;-1.85;61.57;98480.59;5053250;28;20546;-50
2022/02/02 06:28:09;;;;;;;9.07;4.68;;;;;;;-1.84;61.35;98484.91;5053139;28;20110;-49
2022/02/02 06:30:35;;;;;;;8.02;4.60;;;;;;;-1.81;61.27;98490.00;5054194;28;20033;-53
2022/02/02 06:33:06;;;;;;;10.88;5.30;;;;;;;-1.76;60.53;98493.22;5051628;28;20029;-53
2022/02/02 06:35:33;;;;;;;10.38;5.50;;;;;;;-1.74;60.69;98496.63;5035980;28;20040;-55
2022/02/02 06:37:58;;;;;;;8.52;5.05;;;;;;;-1.74;61.16;98499.25;5040414;28;20474;-58
2022/02/02 06:40:25;;;;;;;9.73;5.05;;;;;;;-1.78;61.22;98495.09;5041085;28;20025;-55
2022/02/02 06:42:51;;;;;;;8.48;5.10;;;;;;;-1.77;61.46;98496.78;5041205;28;20112;-56
2022/02/02 06:45:18;;;;;;;10.35;5.47;;;;;;;-1.78;61.47;98502.94;5042373;28;20883;-59
2022/02/02 06:47:48;;;;;;;10.00;4.95;;;;;;;-1.64;60.36;98516.22;5040794;28;20141;-57
2022/02/02 06:50:38;;;;;;;12.10;5.47;;;;;;;-1.65;60.91;98508.41;5041523;28;20048;-57
2022/02/02 06:53:29;;;;;;;8.77;5.43;;;;;;;-1.63;61.28;98515.28;5041870;28;20032;-56
2022/02/02 06:56:30;;;;;;;10.18;5.18;;;;;;;-1.52;60.87;98524.38;5042977;28;20163;-56
2022/02/02 07:02:00;;;;;;;9.20;5.20;;;;;;;-1.38;59.99;98524.50;5039827;28;20033;-52
2022/02/02 07:12:55;;;;;;;9.65;5.10;;;;;;;-0.84;58.54;98528.66;5043610;28;20087;-53
2022/02/02 07:15:34;;;;;;;16.25;6.35;;;;;;;-0.82;58.85;98529.44;5032040;28;20026;-54
2022/02/02 07:34:32;;;;;;;8.93;5.30;;;;;;;-0.73;58.89;98547.31;5044365;28;20032;-62
2022/02/02 07:37:01;;;;;;;9.13;5.45;;;;;;;-0.68;58.21;98556.75;5051052;28;20072;-56
2022/02/02 07:39:27;;;;;;;9.73;5.28;;;;;;;-0.80;58.45;98553.84;5052011;28;20036;-52
2022/02/02 07:42:02;;;;;;;10.07;5.07;;;;;;;-0.74;58.29;98556.13;5052320;28;20059;-57
2022/02/02 07:44:31;;;;;;;;;;;;;;;-0.54;58.91;98559.44;5048161;28;20025;-55
2022/02/02 07:47:00;;;;;;;9.70;5.00;;;;;;;-0.61;57.83;98561.56;5050778;28;19923;-54
2022/02/02 07:49:30;;;;;;;10.05;5.57;;;;;;;-0.71;58.00;98564.81;5052721;28;20099;-57
2022/02/02 07:51:58;;;;;;;14.75;5.47;;;;;;;-0.67;58.96;98576.84;5050738;28;20036;-53
2022/02/02 07:54:29;;;;;;;11.48;6.15;;;;;;;-0.61;58.71;98581.75;5051979;28;20082;-56
2022/02/02 07:56:57;;;;;;;8.38;4.93;;;;;;;-0.56;58.39;98582.34;5052161;28;20541;-58
2022/02/02 07:59:34;;;;;;;11.40;4.85;;;;;;;-0.55;58.32;98585.84;5049327;28;20602;-55
2022/02/02 08:02:02;;;;;;;10.23;5.13;;;;;;;-0.47;58.98;98599.41;5031787;28;20033;-56
2022/02/02 08:04:29;;;;;;;11.15;5.20;;;;;;;-0.39;58.18;98591.91;5030924;28;20037;-56
2022/02/02 08:06:56;;;;;;;7.82;4.93;;;;;;;-0.38;57.59;98595.41;5045814;28;20677;-62
2022/02/02 08:09:33;;;;;;;8.75;4.00;;;;;;;-0.43;57.65;98598.28;5040728;28;20493;-57
2022/02/02 08:11:59;;;;;;;8.95;4.30;;;;;;;-0.47;58.16;98595.00;5062671;28;20024;-56
2022/02/02 08:14:27;;;;;;;7.97;4.00;;;;;;;-0.51;57.65;98598.72;5048600;28;20051;-53
2022/02/02 08:16:52;;;;;;;7.65;4.07;;;;;;;-0.59;57.71;98600.91;5057739;28;20063;-58
2022/02/02 08:19:20;;;;;;;7.25;4.18;;;;;;;-0.64;57.95;98601.16;5052827;28;20465;-57
2022/02/02 08:21:45;;;;;;;8.10;4.35;;;;;;;-0.84;58.06;98581.22;5065689;28;20036;-53
2022/02/02 08:24:12;;;;;;;8.13;4.00;;;;;;;-0.73;58.82;98599.88;5058813;28;20021;-56
2022/02/02 08:26:38;;;;;;;7.35;4.20;;;;;;;-0.67;58.74;98611.00;5049277;28;20539;-53
2022/02/02 08:29:04;;;;;;;8.32;4.70;;;;;;;-0.71;58.34;98593.72;5043218;28;20041;-53
2022/02/02 08:31:29;;;;;;;7.55;4.20;;;;;;;-0.68;58.57;98610.16;5046552;28;20025;-53
2022/02/02 08:34:00;;;;;;;8.80;4.40;;;;;;;-0.63;58.15;98616.00;5064784;28;20029;-50
2022/02/02 08:36:27;;;;;;;6.65;4.13;;;;;;;-0.59;58.29;98611.44;5060712;28;20032;-55
2022/02/02 08:41:41;;;;;;;7.22;4.28;;;;;;;-0.45;57.87;98627.31;5066078;28;20033;-57
2022/02/02 08:44:15;;;;;;;6.22;4.05;;;;;;;-0.40;57.15;98628.84;5052955;28;20032;-53
2022/02/02 08:46:47;;;;;;;8.18;4.50;;;;;;;-0.31;57.18;98636.22;5043833;28;20536;-56
2022/02/02 08:49:14;;;;;;;14.10;6.22;;;;;;;-0.39;57.10;98627.91;5057227;28;20047;-56
2022/02/02 08:51:44;;;;;;;9.57;5.20;;;;;;;-0.59;57.39;98600.91;5036524;28;20121;-51
2022/02/02 09:00:12;;;;;;;6.18;3.92;;;;;;;-0.35;57.41;98635.56;5054642;28;20059;-55
2022/02/02 09:02:16;;;;;;;7.80;3.78;;;;;;;-0.30;56.86;98630.88;5051959;28;20412;-51
2022/02/02 09:07:26;;;;;;;7.13;4.15;;;;;;;-0.25;57.12;98629.78;5053317;28;20445;-53
2022/02/02 09:10:07;;;;;;;7.20;4.15;;;;;;;-0.46;56.97;98601.97;5064679;28;20061;-53
2022/02/02 09:25:54;;;;;;;7.40;4.30;;;;;;;-0.12;56.71;98641.34;5051908;28;20139;-52
2022/02/02 09:36:18;;;;;;;6.63;3.78;;;;;;;-0.35;56.11;98616.28;5061912;28;20258;-55
2022/02/02 09:38:44;;;;;;;7.95;4.32;;;;;;;-0.26;56.65;98649.97;5061710;28;20115;-53
2022/02/02 09:43:46;;;;;;;7.93;4.05;;;;;;;-0.12;56.86;98656.25;5032195;28;20037;-55
2022/02/02 09:46:15;;;;;;;7.60;3.85;;;;;;;-0.06;56.03;98661.16;5044977;28;20063;-56
2022/02/02 09:48:47;;;;;;;6.90;4.03;;;;;;;-0.09;55.69;98650.81;5061836;28;20464;-56
2022/02/02 09:51:20;;;;;;;5.32;3.22;;;;;;;0.00;55.44;98658.22;5051178;28;20069;-54
2022/02/02 09:53:56;;;;;;;6.78;3.53;;;;;;;-0.06;55.46;98645.38;5040589;28;20029;-53
2022/02/02 09:57:28;;;;;;;6.18;3.25;;;;;;;0.01;55.27;98657.28;5059959;28;20025;-53
2022/02/02 10:03:09;;;;;;;5.68;3.30;;;;;;;0.14;55.65;98654.81;5041053;28;20067;-55
2022/02/02 10:05:13;;;;;;;7.38;4.00;;;;;;;0.31;54.95;98659.09;5057270;28;20120;-52
2022/02/02 10:10:37;;;;;;;4.38;2.95;;;;;;;0.67;54.34;98654.44;5030337;28;20371;-56
2022/02/02 10:15:52;;;;;;;4.57;2.97;;;;;;;0.84;52.60;98656.06;5038196;28;20025;-52
2022/02/02 10:18:20;;;;;;;6.45;3.47;;;;;;;0.73;52.90;98635.63;5057135;28;20033;-54
2022/02/02 10:20:53;;;;;;;5.45;3.50;;;;;;;0.90;53.07;98628.50;5054831;28;20396;-53
2022/02/02 10:23:30;;;;;;;5.80;3.38;;;;;;;1.16;52.99;98663.81;5052856;28;20057;-54
2022/02/02 10:26:12;;;;;;;7.75;3.50;;;;;;;1.11;52.65;98663.25;5063496;28;20040;-57
2022/02/02 10:28:37;;;;;;;5.53;3.17;;;;;;;0.86;52.54;98648.91;5048641;28;20120;-61
2022/02/02 10:31:05;;;;;;;4.95;3.15;;;;;;;0.80;52.65;98647.47;5037108;28;20125;-59
2022/02/02 10:33:32;;;;;;;5.88;3.47;;;;;;;0.86;53.05;98672.63;5039289;28;20448;-55
2022/02/02 10:36:11;;;;;;;5.70;3.40;;;;;;;0.73;53.39;98661.13;5051625;28;20130;-55
2022/02/02 10:38:50;;;;;;;6.47;3.63;;;;;;;0.78;53.55;98672.25;5049967;28;20057;-56
2022/02/02 10:43:56;;;;;;;4.90;3.38;;;;;;;0.78;52.80;98653.78;5057892;28;20438;-57
2022/02/02 10:49:02;;;;;;;10.35;4.45;;;;;;;0.55;53.65;98643.66;5053196;28;20550;-55
2022/02/02 10:54:31;;;;;;;6.60;3.92;;;;;;;0.61;54.17;98662.69;5066005;28;20478;-55
2022/02/02 11:07:44;;;;;;;6.70;3.85;;;;;;;0.67;53.07;98639.44;5039868;28;20025;-53
2022/02/02 11:10:12;;;;;;;7.38;4.05;;;;;;;0.91;53.21;98651.28;5064644;28;20033;-61
2022/02/02 11:12:40;;;;;;;5.97;3.67;;;;;;;0.95;52.82;98672.06;5057332;28;20543;-53
2022/02/02 11:15:17;;;;;;;5.63;3.25;;;;;;;0.98;52.89;98664.00;5057147;28;20116;-54
2022/02/02 11:17:46;;;;;;;5.30;3.00;;;;;;;0.94;52.41;98673.00;5039974;28;20439;-55
2022/02/02 11:20:15;;;;;;;17.50;12.07;;;;;;;0.74;52.42;98639.94;5056586;28;20436;-59
2022/02/02 11:22:50;;;;;;;10.77;4.82;;;;;;;0.89;52.89;98674.25;5043849;28;20040;-61
2022/02/02 11:25:16;;;;;;;6.90;3.70;;;;;;;0.79;52.89;98679.19;5056770;28;20094;-54
2022/02/02 11:27:44;;;;;;;7.78;4.22;;;;;;;0.70;53.79;98678.78;5042574;28;20037;-56
2022/02/02 11:30:25;;;;;;;8.63;3.97;;;;;;;0.73;54.04;98685.69;5055568;28;20029;-64
2022/02/02 11:32:58;;;;;;;8.82;4.95;;;;;;;0.68;53.84;98678.03;5051139;28;20033;-52
2022/02/02 11:35:34;;;;;;;8.88;4.78;;;;;;;0.67;54.08;98678.97;5046359;28;20481;-50
2022/02/02 11:38:05;;;;;;;8.68;5.20;;;;;;;0.66;53.58;98690.44;5052372;28;20056;-56
2022/02/02 11:40:34;;;;;;;7.05;4.07;;;;;;;0.63;53.09;98693.25;5039689;28;20052;-56
2022/02/02 11:45:56;;;;;;;7.65;4.40;;;;;;;0.50;54.74;98679.94;5053095;28;20480;-53
2022/02/02 11:48:40;;;;;;;7.32;4.50;;;;;;;0.64;54.08;98704.66;5050581;28;20049;-57
2022/02/02 11:51:07;;;;;;;10.18;5.40;;;;;;;0.49;53.78;98709.84;5044293;28;20489;-53
2022/02/02 11:53:48;;;;;;;8.50;4.63;;;;;;;0.51;54.36;98704.53;5051604;28;20033;-55
2022/02/02 11:56:14;;;;;;;9.45;4.15;;;;;;;0.43;53.41;98704.94;5060445;28;20041;-54
2022/02/02 11:58:39;;;;;;;8.35;3.78;;;;;;;0.35;54.32;98708.00;5043548;28;20150;-56
2022/02/02 12:09:32;;;;;;;8.23;3.92;;;;;;;0.25;54.70;98720.84;5051163;28;20396;-60
2022/02/02 12:48:03;;;;;;;7.30;3.90;;;;;;;0.01;54.07;98740.63;5061327;28;20044;-56
2022/02/02 12:56:35;;;;;;;9.07;4.72;;;;;;;0.03;55.48;98750.16;5041655;28;20024;-58
2022/02/02 12:59:34;;;;;;;12.15;5.75;;;;;;;0.01;55.99;98748.53;5064438;28;20032;-52
2022/02/02 13:02:07;;;;;;;9.27;4.65;;;;;;;0.03;55.65;98754.53;5045176;28;20025;-52
2022/02/02 13:04:32;;;;;;;9.32;4.47;;;;;;;-0.03;55.48;98750.47;5061000;28;20127;-53
2022/02/02 13:07:15;;;;;;;9.18;4.38;;;;;;;0.06;55.72;98754.38;5048135;28;20427;-56
2022/02/02 13:09:43;;;;;;;8.75;4.50;;;;;;;0.04;55.15;98764.13;5037434;28;20028;-61
2022/02/02 13:15:24;;;;;;;7.78;4.18;;;;;;;-0.03;55.18;98751.31;5053892;28;20045;-57
2022/02/02 13:21:03;;;;;;;11.73;6.32;;;;;;;-0.17;56.11;98754.69;5062709;28;20518;-55
2022/02/02 13:26:27;;;;;;;9.70;5.10;;;;;;;-0.18;55.89;98760.91;5061016;28;20033;-54
2022/02/02 13:31:58;;;;;;;10.75;6.13;;;;;;;-0.14;56.21;98769.44;5063763;28;20044;-56
2022/02/02 13:45:53;;;;;;;6.47;3.28;;;;;;;-0.59;55.37;98758.66;5065616;28;20033;-58
2022/02/02 13:51:15;;;;;;;9.23;4.95;;;;;;;-0.52;55.74;98796.84;5057299;28;20048;-56
2022/02/02 13:53:58;;;;;;;5.75;3.55;;;;;;;-0.54;55.48;98801.34;5038556;28;20104;-56
2022/02/02 14:03:51;;;;;;;9.45;3.75;;;;;;;-0.58;56.08;98812.94;5063838;28;20675;-56
2022/02/02 14:05:22;;;;;;;7.85;4.15;;;;;;;-0.54;56.25;98818.91;5064617;28;20032;-55
2022/02/02 14:08:12;;;;;;;6.57;4.05;;;;;;;-0.50;56.38;98815.19;5039760;28;20031;-53
2022/02/02 14:10:59;;;;;;;6.85;4.20;;;;;;;-0.52;56.17;98817.88;5039247;28;20173;-56
2022/02/02 14:32:34;;;;;;;9.40;4.78;;;;;;;-0.46;56.50;98843.88;5062409;28;20505;-56
2022/02/02 14:35:00;;;;;;;9.73;4.93;;;;;;;-0.49;57.53;98846.66;5067792;28;20032;-55
2022/02/02 14:37:34;;;;;;;11.90;5.05;;;;;;;-0.56;57.72;98850.53;5055767;28;20455;-54
2022/02/02 14:40:12;;;;;;;9.55;5.40;;;;;;;-0.53;57.22;98850.38;5060989;28;20203;-55
2022/02/02 14:42:39;;;;;;;9.85;4.57;;;;;;;-0.61;57.32;98845.50;5072334;28;20024;-53
2022/02/02 14:45:10;;;;;;;11.18;4.43;;;;;;;-0.57;57.12;98859.34;5056138;28;20155;-56
2022/02/02 14:47:42;;;;;;;10.60;4.72;;;;;;;-0.66;57.22;98855.38;5068670;28;20041;-50
2022/02/02 15:30:49;;;;;;;8.30;4.50;;;;;;;-0.47;55.78;98893.91;5063007;28;20021;-54
2022/02/02 15:33:22;;;;;;;12.05;5.05;;;;;;;-0.41;55.63;98892.75;5062099;28;20033;-59
2022/02/02 15:35:51;;;;;;;11.13;4.63;;;;;;;-0.42;55.60;98894.53;5044767;28;20024;-57
2022/02/02 15:38:22;;;;;;;12.38;5.78;;;;;;;-0.43;55.70;98908.59;5063257;28;20123;-55
2022/02/02 15:40:57;;;;;;;13.48;4.57;;;;;;;-0.48;55.96;98898.34;5064949;28;20495;-54
2022/02/02 15:43:34;;;;;;;9.98;4.60;;;;;;;-0.78;56.38;98874.41;5052362;28;20040;-51
2022/02/02 16:02:15;;;;;;;8.23;4.40;;;;;;;-0.89;57.84;98919.63;5061700;28;20025;-59
2022/02/02 16:04:41;;;;;;;10.95;4.68;;;;;;;-1.04;58.10;98915.94;5063141;28;20037;-54
2022/02/02 16:07:11;;;;;;;10.73;4.55;;;;;;;-1.12;57.61;98912.81;5046836;28;20021;-58
2022/02/02 16:09:51;;;;;;;12.80;4.88;;;;;;;-1.33;58.07;98923.41;5044615;28;20033;-56
2022/02/02 16:12:30;;;;;;;12.75;5.32;;;;;;;-1.51;58.64;98917.22;5056852;28;20056;-55
2022/02/02 16:15:21;;;;;;;10.05;4.47;;;;;;;-1.64;58.72;98930.91;5051429;28;20158;-53
2022/02/02 16:36:50;;;;;;;9.70;4.68;;;;;;;-2.17;58.31;98932.34;5059762;28;20032;-58
2022/02/02 16:39:22;;;;;;;7.95;4.47;;;;;;;-2.25;59.02;98943.16;5056804;28;20060;-58
2022/02/02 16:44:31;;;;;;;11.15;4.53;;;;;;;-2.52;58.46;98914.56;5041300;28;20029;-57
2022/02/02 16:46:57;;;;;;;9.25;4.90;;;;;;;-2.34;58.36;98951.41;5042774;28;20459;-56
2022/02/02 16:49:23;;;;;;;9.38;3.97;;;;;;;-2.36;58.55;98948.00;5050188;28;20090;-58
2022/02/02 16:51:49;;;;;;;5.95;3.70;;;;;;;-2.40;58.86;98959.53;5043611;28;20115;-59
2022/02/02 16:54:30;;;;;;;8.63;4.57;;;;;;;-2.39;59.25;98962.06;5042712;28;20029;-56
2022/02/02 17:30:17;;;;;;;7.90;4.60;;;;;;;-1.39;59.83;98984.94;5060167;28;20017;-60
2022/02/02 17:32:57;;;;;;;11.02;5.00;;;;;;;-1.35;59.77;98975.13;5053586;28;20584;-56
2022/02/02 17:35:41;;;;;;;8.65;4.60;;;;;;;-1.37;59.32;98974.34;5051821;28;20112;-62
2022/02/02 17:45:59;;;;;;;8.82;4.35;;;;;;;-1.36;59.35;98974.31;5061944;28;20833;-60
2022/02/02 18:21:06;;;;;;;11.27;5.15;;;;;;;-1.31;60.00;98981.97;5043096;28;20036;-58
2022/02/02 18:23:43;;;;;;;10.27;4.90;;;;;;;-1.31;59.88;98988.06;5060206;28;20037;-56
2022/02/02 18:29:01;;;;;;;9.63;5.03;;;;;;;-1.25;60.48;98993.94;5038331;28;20111;-58
2022/02/02 20:07:50;;;;;;;13.23;7.68;;;;;;;-1.80;60.72;99024.34;5031390;28;20034;-57
2022/02/02 20:12:47;;;;;;;16.60;7.88;;;;;;;-1.94;60.75;99017.06;5029917;28;20022;-61
2022/02/02 20:15:14;;;;;;;13.73;6.97;;;;;;;-1.90;61.01;99035.25;5030158;28;20616;-51
2022/02/02 20:17:41;;;;;;;13.93;7.30;;;;;;;-1.90;60.77;99040.50;5035750;28;20036;-54
2022/02/02 20:20:17;;;;;;;14.48;7.13;;;;;;;-2.00;60.86;99026.03;5038763;28;20779;-52
2022/02/02 20:22:44;;;;;;;15.93;6.47;;;;;;;-1.84;60.71;99049.03;5036936;28;20070;-51
2022/02/02 20:25:12;;;;;;;15.55;7.57;;;;;;;-1.82;60.20;99047.19;5036924;28;20029;-58
2022/02/02 20:27:38;;;;;;;14.52;6.90;;;;;;;-1.80;60.25;99047.97;5050988;28;20257;-52
2022/02/02 20:30:06;;;;;;;14.57;6.68;;;;;;;-1.90;60.38;99024.75;5046687;28;20421;-53
2022/02/02 20:32:32;;;;;;;11.95;6.63;;;;;;;-1.74;59.57;99042.44;5032397;28;20033;-53
2022/02/02 20:34:57;;;;;;;14.25;7.20;;;;;;;-1.74;59.40;99045.06;5013799;28;20087;-57
2022/02/02 20:37:23;;;;;;;14.63;7.00;;;;;;;-1.81;59.50;99034.00;5031236;28;20028;-59
2022/02/02 20:39:57;;;;;;;11.52;6.78;;;;;;;-1.73;59.75;99047.66;5035322;28;20037;-65
2022/02/02 20:42:38;;;;;;;13.13;7.28;;;;;;;-1.78;59.36;99049.63;5050962;28;20521;-52
2022/02/02 20:45:29;;;;;;;11.48;6.35;;;;;;;-1.73;59.69;99054.66;5051127;28;20055;-52
2022/02/02 21:14:47;;;;;;;14.05;7.35;;;;;;;-1.65;58.31;99060.44;5060432;28;20036;-53
2022/02/02 21:17:23;;;;;;;13.02;7.03;;;;;;;-1.66;58.38;99071.00;5063907;28;20029;-56
2022/02/02 21:19:55;;;;;;;13.93;7.28;;;;;;;-1.70;58.65;99067.66;5053564;28;20037;-56
2022/02/02 21:22:23;;;;;;;16.27;7.05;;;;;;;-1.63;57.91;99073.50;5062992;28;20488;-52
2022/02/02 21:25:29;;;;;;;12.68;6.70;;;;;;;-1.69;58.48;99065.88;5050685;28;20029;-57
2022/02/02 21:27:56;;;;;;;11.60;6.55;;;;;;;-1.61;58.23;99074.28;5045615;28;20028;-51
2022/02/02 21:30:23;;;;;;;15.70;6.70;;;;;;;-1.63;57.57;99090.09;5050725;28;20530;-50
2022/02/02 21:32:49;;;;;;;15.00;6.65;;;;;;;-1.69;58.40;99076.38;5051339;28;20082;-56
2022/02/02 21:35:17;;;;;;;12.57;6.60;;;;;;;-1.70;58.11;99077.31;5051228;28;20035;-53
2022/02/02 21:37:46;;;;;;;14.15;6.47;;;;;;;-1.74;58.55;99089.69;5050438;28;20025;-54
2022/02/02 21:42:45;;;;;;;14.40;6.95;;;;;;;-1.81;58.31;99093.50;5047577;28;20078;-54
2022/02/02 21:45:11;;;;;;;15.40;6.72;;;;;;;-1.94;58.54;99091.38;5031264;28;20106;-53
2022/02/02 21:47:37;;;;;;;13.65;6.85;;;;;;;-2.03;58.86;99099.63;5030596;28;20057;-55
2022/02/02 21:50:09;;;;;;;12.30;6.57;;;;;;;-2.13;58.99;99100.91;5030274;28;20033;-51
2022/02/02 21:52:34;;;;;;;14.68;7.00;;;;;;;-2.22;59.02;99089.88;5030920;28;20382;-50
2022/02/02 21:55:00;;;;;;;14.48;6.47;;;;;;;-2.33;59.57;99081.59;5031262;28;20488;-53
2022/02/02 21:57:25;;;;;;;14.32;6.78;;;;;;;-2.41;59.87;99087.13;5030341;28;20030;-61
2022/02/02 21:59:51;;;;;;;15.57;6.80;;;;;;;-2.47;59.53;99101.31;5042691;28;20029;-50
2022/02/02 22:02:16;;;;;;;13.05;7.15;;;;;;;-2.51;59.90;99093.66;5030861;28;20048;-52
2022/02/02 22:04:42;;;;;;;15.35;7.22;;;;;;;-2.61;59.87;99103.63;5031207;28;20442;-52
2022/02/02 22:07:07;;;;;;;14.15;6.75;;;;;;;-2.68;60.78;99099.50;5030273;28;20036;-51
2022/02/02 22:09:32;;;;;;;14.75;7.35;;;;;;;-2.72;60.67;99097.94;5030261;28;20025;-50
2022/02/02 22:11:58;;;;;;;14.70;7.18;;;;;;;-2.80;61.13;99101.69;5030931;28;20079;-50
2022/02/02 22:14:25;;;;;;;12.52;6.18;;;;;;;-2.88;60.79;99090.66;5042525;28;20025;-53
2022/02/02 22:16:52;;;;;;;15.52;7.50;;;;;;;-2.82;61.06;99102.66;5050918;28;20068;-55
2022/02/02 22:19:18;;;;;;;13.05;6.22;;;;;;;-2.91;60.73;99106.47;5050287;28;20036;-53
2022/02/02 22:21:44;;;;;;;11.60;6.10;;;;;;;-2.93;61.12;99103.91;5050629;28;20037;-50
2022/02/02 22:24:09;;;;;;;10.52;6.15;;;;;;;-2.93;61.82;99103.06;5050544;28;20496;-56
2022/02/02 22:26:36;;;;;;;13.13;7.30;;;;;;;-2.94;61.75;99109.19;5050295;28;20037;-50
2022/02/02 22:29:02;;;;;;;14.02;6.82;;;;;;;-2.96;62.10;99101.41;5046682;28;20028;-50
2022/02/02 22:31:28;;;;;;;15.52;6.25;;;;;;;-2.93;61.44;99090.81;5029772;28;20140;-50
2022/02/02 22:33:53;;;;;;;14.30;6.25;;;;;;;-3.15;61.13;99077.66;5033193;28;20048;-61
2022/02/02 22:36:19;;;;;;;12.30;6.55;;;;;;;-3.11;61.99;99081.88;5034241;28;20022;-52
2022/02/02 22:38:46;;;;;;;11.05;6.03;;;;;;;-2.94;61.55;99101.34;5033576;28;20033;-49
2022/02/02 22:41:12;;;;;;;13.68;6.65;;;;;;;-2.96;61.65;99105.78;5033870;28;20037;-51
2022/02/02 22:43:45;;;;;;;12.45;6.53;;;;;;;-2.98;61.88;99105.00;5033489;28;20041;-59
2022/02/02 22:46:11;;;;;;;10.00;5.82;;;;;;;-2.96;61.97;99103.16;5033512;28;20041;-50
2022/02/02 22:48:38;;;;;;;12.70;6.47;;;;;;;-3.00;61.57;99096.34;5033851;28;20413;-54
2022/02/02 22:51:04;;;;;;;12.45;6.53;;;;;;;-3.17;62.09;99069.00;5033216;28;20041;-50
2022/02/02 22:53:32;;;;;;;11.50;6.07;;;;;;;-2.97;62.07;99097.09;5033591;28;20076;-48
2022/02/02 22:55:57;;;;;;;12.57;6.40;;;;;;;-3.01;61.94;99105.13;5034180;28;20045;-50
2022/02/02 22:58:23;;;;;;;12.43;6.22;;;;;;;-3.04;61.74;99104.31;5033632;28;20087;-53
2022/02/02 23:00:49;;;;;;;15.43;6.85;;;;;;;-3.04;62.12;99100.81;5049778;28;20029;-50
2022/02/02 23:03:18;;;;;;;12.75;6.30;;;;;;;-3.08;61.95;99104.47;5033729;28;20861;-52
2022/02/02 23:05:47;;;;;;;12.77;6.95;;;;;;;-3.14;62.39;99099.47;5033506;28;20036;-56
2022/02/02 23:08:16;;;;;;;17.05;6.80;;;;;;;-3.32;61.99;99084.38;5033225;28;20079;-54
2022/02/02 23:10:42;;;;;;;14.75;6.70;;;;;;;-3.20;62.35;99111.88;5033584;28;20039;-51
2022/02/02 23:13:10;;;;;;;14.45;7.20;;;;;;;-3.25;62.70;99107.69;5033286;28;20428;-52
2022/02/02 23:15:49;;;;;;;15.45;6.90;;;;;;;-3.28;62.56;99102.59;5037051;28;20131;-52
2022/02/02 23:18:21;;;;;;;16.88;6.90;;;;;;;-3.28;62.88;99116.50;5039036;28;20033;-49